Time;durP1;ratioP1;P1;durP2;ratioP2;P2;SDS_P1;SDS_P2;PMS_P1;PMS_P2;Temp;Humidity;BMP_temperature;BMP_pressure;BME280_temperature;BME280_humidity;BME280_pressure;Samples;Min_cycle;Max_cycle;Signal;HPM_P1;HPM_P2
2021/05/24 00:00:36;;;;;;;2.05;1.85;;;;;;;;;;4975395;28;20051;-68
2021/05/24 00:03:03;;;;;;;3.60;2.00;;;;;;;;;;4976214;28;20082;-68
2021/05/24 00:05:33;;;;;;;1.63;1.50;;;;;;;;;;4959069;28;20093;-68
2021/05/24 00:08:00;;;;;;;2.45;1.42;;;;;;;;;;4944252;28;20055;-68
2021/05/24 00:10:29;;;;;;;2.47;1.70;;;;;;;;;;4957074;28;20047;-67
2021/05/24 00:12:57;;;;;;;4.47;1.95;;;;;;;;;;4956169;28;20512;-67
2021/05/24 00:15:26;;;;;;;4.07;1.90;;;;;;;;;;4973096;28;20090;-68
2021/05/24 00:17:53;;;;;;;5.43;2.45;;;;;;;;;;4973207;28;20046;-68
2021/05/24 00:20:22;;;;;;;1.92;1.70;;;;;;;;;;4973166;28;20047;-67
2021/05/24 00:22:51;;;;;;;3.00;2.10;;;;;;;;;;4975598;28;20101;-68
2021/05/24 00:25:19;;;;;;;9.02;2.15;;;;;;;;;;4974526;28;20054;-69
2021/05/24 00:27:46;;;;;;;2.50;1.90;;;;;;;;;;4975875;28;20102;-68
2021/05/24 00:30:13;;;;;;;2.05;1.80;;;;;;;;;;4975524;28;20050;-68
2021/05/24 00:32:40;;;;;;;4.78;1.95;;;;;;;;;;4976351;28;20050;-68
2021/05/24 00:35:07;;;;;;;3.25;1.85;;;;;;;;;;4974784;28;20047;-68
2021/05/24 00:37:34;;;;;;;4.78;2.00;;;;;;;;;;4974753;28;20082;-68
2021/05/24 00:40:02;;;;;;;2.13;1.83;;;;;;;;;;4974564;28;20051;-68
2021/05/24 00:42:29;;;;;;;7.43;2.30;;;;;;;;;;4973272;28;20086;-67
2021/05/24 00:44:56;;;;;;;2.75;1.67;;;;;;;;;;4971613;28;20051;-68
2021/05/24 00:47:22;;;;;;;2.50;1.80;;;;;;;;;;4955299;28;20054;-67
2021/05/24 00:49:49;;;;;;;2.17;1.70;;;;;;;;;;4973273;28;20055;-67
2021/05/24 00:52:15;;;;;;;4.38;2.35;;;;;;;;;;4976833;28;20054;-67
2021/05/24 00:54:42;;;;;;;4.45;2.22;;;;;;;;;;4975988;28;20047;-68
2021/05/24 00:57:08;;;;;;;3.63;2.00;;;;;;;;;;4959577;28;20055;-67
2021/05/24 00:59:36;;;;;;;2.13;1.65;;;;;;;;;;4975657;28;20047;-67
2021/05/24 01:02:03;;;;;;;2.63;1.85;;;;;;;;;;4975398;28;20051;-67
2021/05/24 01:04:30;;;;;;;3.03;1.98;;;;;;;;;;4975565;28;20051;-67
2021/05/24 01:06:57;;;;;;;4.95;2.20;;;;;;;;;;4976559;28;20054;-67
2021/05/24 01:09:24;;;;;;;3.17;1.75;;;;;;;;;;4976623;28;20097;-67
2021/05/24 01:11:51;;;;;;;4.72;2.58;;;;;;;;;;4975291;28;20059;-68
2021/05/24 01:14:18;;;;;;;2.40;1.77;;;;;;;;;;4976509;28;20306;-67
2021/05/24 01:16:48;;;;;;;4.00;2.30;;;;;;;;;;4959163;28;20054;-67
2021/05/24 01:19:14;;;;;;;3.58;2.20;;;;;;;;;;4975357;28;20093;-68
2021/05/24 01:21:41;;;;;;;4.07;2.25;;;;;;;;;;4975224;28;20105;-67
2021/05/24 01:24:09;;;;;;;4.25;2.40;;;;;;;;;;4974850;28;20054;-67
2021/05/24 01:26:35;;;;;;;2.58;1.73;;;;;;;;;;4974950;28;20473;-67
2021/05/24 01:29:02;;;;;;;4.03;2.50;;;;;;;;;;4976241;28;20089;-67
2021/05/24 01:31:29;;;;;;;2.08;1.88;;;;;;;;;;4975296;28;20058;-67
2021/05/24 01:33:58;;;;;;;2.35;1.92;;;;;;;;;;4975887;28;20047;-67
2021/05/24 01:36:26;;;;;;;7.75;1.95;;;;;;;;;;4975882;28;20113;-67
2021/05/24 01:38:53;;;;;;;5.25;2.15;;;;;;;;;;4959053;28;20498;-67
2021/05/24 01:41:20;;;;;;;5.95;2.05;;;;;;;;;;4974538;28;20063;-67
2021/05/24 01:43:46;;;;;;;3.75;2.17;;;;;;;;;;4975760;28;20047;-66
2021/05/24 01:46:13;;;;;;;4.13;2.33;;;;;;;;;;4973928;28;20046;-67
2021/05/24 01:48:41;;;;;;;3.90;2.13;;;;;;;;;;4974823;28;20055;-67
2021/05/24 01:51:08;;;;;;;3.72;2.38;;;;;;;;;;4974503;28;20051;-67
2021/05/24 01:53:36;;;;;;;3.80;2.15;;;;;;;;;;4958852;28;20058;-67
2021/05/24 01:56:03;;;;;;;5.07;2.40;;;;;;;;;;4974019;28;20050;-67
2021/05/24 01:58:30;;;;;;;4.50;2.30;;;;;;;;;;4975548;28;20054;-67
2021/05/24 02:01:08;;;;;;;2.67;2.47;;;;;;;;;;4974047;28;20094;-66
2021/05/24 02:03:36;;;;;;;3.15;2.30;;;;;;;;;;4975808;28;20399;-67
2021/05/24 02:06:03;;;;;;;3.92;2.30;;;;;;;;;;4990103;28;20063;-67
2021/05/24 02:08:31;;;;;;;4.53;2.17;;;;;;;;;;4974442;28;20102;-67
2021/05/24 02:10:57;;;;;;;2.45;2.00;;;;;;;;;;4974357;28;20046;-67
2021/05/24 02:13:27;;;;;;;3.50;2.30;;;;;;;;;;4975613;28;20054;-67
2021/05/24 02:15:54;;;;;;;2.85;2.50;;;;;;;;;;4943054;28;20046;-67
2021/05/24 02:18:21;;;;;;;4.22;2.20;;;;;;;;;;4974112;28;20106;-67
2021/05/24 02:20:48;;;;;;;2.20;1.80;;;;;;;;;;4974152;28;20042;-68
2021/05/24 02:23:15;;;;;;;2.25;1.80;;;;;;;;;;4974059;28;20050;-67
2021/05/24 02:25:41;;;;;;;4.03;2.35;;;;;;;;;;4990025;28;20050;-66
2021/05/24 02:28:08;;;;;;;3.25;2.50;;;;;;;;;;4975227;28;20219;-67
2021/05/24 02:30:35;;;;;;;5.50;2.10;;;;;;;;;;4975092;28;20047;-67
2021/05/24 02:33:02;;;;;;;2.13;1.90;;;;;;;;;;4957715;28;20047;-67
2021/05/24 02:35:29;;;;;;;4.45;2.30;;;;;;;;;;4973592;28;20442;-67
2021/05/24 02:37:57;;;;;;;4.15;1.90;;;;;;;;;;4975030;28;20051;-67
2021/05/24 02:40:24;;;;;;;2.90;1.90;;;;;;;;;;4957667;28;20514;-67
2021/05/24 02:42:51;;;;;;;3.90;2.00;;;;;;;;;;4973636;28;20051;-67
2021/05/24 02:45:19;;;;;;;2.42;1.98;;;;;;;;;;4974779;28;20086;-67
2021/05/24 02:47:46;;;;;;;3.25;2.40;;;;;;;;;;4973770;28;20465;-67
2021/05/24 02:50:16;;;;;;;4.72;2.45;;;;;;;;;;4974819;28;20101;-67
2021/05/24 02:52:43;;;;;;;2.92;2.03;;;;;;;;;;4973569;28;20502;-67
2021/05/24 02:55:10;;;;;;;3.88;2.20;;;;;;;;;;4974373;28;20051;-67
2021/05/24 02:57:37;;;;;;;5.85;2.30;;;;;;;;;;4973377;28;20481;-67
2021/05/24 03:00:05;;;;;;;4.32;2.25;;;;;;;;;;4974545;28;20149;-67
2021/05/24 03:02:32;;;;;;;3.97;2.03;;;;;;;;;;4973253;28;20047;-67
2021/05/24 03:04:58;;;;;;;2.60;2.10;;;;;;;;;;4973262;28;20502;-67
2021/05/24 03:07:25;;;;;;;3.97;2.63;;;;;;;;;;4988999;28;20051;-67
2021/05/24 03:09:52;;;;;;;3.47;2.17;;;;;;;;;;4972989;28;20081;-68
2021/05/24 03:12:18;;;;;;;4.97;2.08;;;;;;;;;;4972719;28;20050;-67
2021/05/24 03:14:45;;;;;;;4.47;2.08;;;;;;;;;;4972761;28;20054;-68
2021/05/24 03:17:11;;;;;;;2.92;2.00;;;;;;;;;;4973962;28;20050;-66
2021/05/24 03:19:38;;;;;;;3.08;1.85;;;;;;;;;;4974062;28;20047;-67
2021/05/24 03:22:05;;;;;;;2.50;1.98;;;;;;;;;;4974210;28;20109;-67
2021/05/24 03:24:31;;;;;;;5.35;2.47;;;;;;;;;;4973968;28;20101;-68
2021/05/24 03:26:58;;;;;;;3.22;2.08;;;;;;;;;;4973823;28;20063;-67
2021/05/24 03:29:24;;;;;;;4.70;2.10;;;;;;;;;;4973940;28;20055;-67
2021/05/24 03:31:51;;;;;;;2.20;2.00;;;;;;;;;;4974385;28;20055;-68
2021/05/24 03:34:18;;;;;;;3.15;1.92;;;;;;;;;;4972410;28;20101;-67
2021/05/24 03:36:44;;;;;;;3.28;2.38;;;;;;;;;;4974163;28;20051;-67
2021/05/24 03:39:11;;;;;;;2.03;1.70;;;;;;;;;;4973687;28;20058;-67
2021/05/24 03:41:37;;;;;;;2.53;2.10;;;;;;;;;;4973769;28;20078;-67
2021/05/24 03:44:04;;;;;;;3.75;2.92;;;;;;;;;;4973471;28;20051;-67
2021/05/24 03:46:31;;;;;;;2.42;2.20;;;;;;;;;;4972556;28;20050;-67
2021/05/24 03:49:00;;;;;;;3.92;2.28;;;;;;;;;;4973488;28;20138;-67
2021/05/24 03:51:26;;;;;;;2.90;2.22;;;;;;;;;;4973683;28;20043;-67
2021/05/24 03:53:53;;;;;;;3.33;2.00;;;;;;;;;;4973593;28;20054;-67
2021/05/24 03:56:20;;;;;;;4.15;2.40;;;;;;;;;;4972190;28;20308;-67
2021/05/24 03:58:47;;;;;;;2.92;2.20;;;;;;;;;;4973586;28;20050;-67
2021/05/24 04:01:14;;;;;;;2.70;2.22;;;;;;;;;;4972152;28;20074;-67
2021/05/24 04:03:41;;;;;;;4.85;2.45;;;;;;;;;;4956500;28;20066;-67
2021/05/24 04:06:09;;;;;;;2.70;2.20;;;;;;;;;;4973372;28;20105;-67
2021/05/24 04:08:42;;;;;;;5.38;3.65;;;;;;;;;;4956761;28;20050;-67
2021/05/24 04:11:10;;;;;;;2.47;2.00;;;;;;;;;;4973035;28;20050;-67
2021/05/24 04:13:37;;;;;;;2.65;1.90;;;;;;;;;;4972153;28;20054;-67
2021/05/24 04:16:04;;;;;;;3.03;2.25;;;;;;;;;;4971749;28;20414;-67
2021/05/24 04:18:34;;;;;;;3.63;1.83;;;;;;;;;;4972117;28;20505;-67
2021/05/24 04:21:04;;;;;;;3.42;2.08;;;;;;;;;;4971867;28;20058;-68
2021/05/24 04:23:31;;;;;;;3.13;2.47;;;;;;;;;;4972220;28;20075;-67
2021/05/24 04:25:57;;;;;;;3.35;2.15;;;;;;;;;;4972910;28;20051;-67
2021/05/24 04:28:24;;;;;;;2.38;2.17;;;;;;;;;;4971857;28;20117;-67
2021/05/24 04:30:55;;;;;;;2.85;2.13;;;;;;;;;;4973187;28;20133;-67
2021/05/24 04:33:22;;;;;;;2.70;2.20;;;;;;;;;;4959093;28;20106;-67
2021/05/24 04:35:48;;;;;;;3.03;2.00;;;;;;;;;;4953628;28;20098;-67
2021/05/24 04:38:15;;;;;;;2.42;2.22;;;;;;;;;;4952695;29;20055;-68
2021/05/24 04:40:41;;;;;;;2.67;2.20;;;;;;;;;;4953697;29;20101;-67
2021/05/24 04:43:08;;;;;;;3.03;2.72;;;;;;;;;;4953772;29;20165;-67
2021/05/24 04:45:35;;;;;;;4.05;2.50;;;;;;;;;;4953579;28;20462;-67
2021/05/24 04:48:01;;;;;;;4.88;2.53;;;;;;;;;;4952441;29;20055;-68
2021/05/24 04:50:28;;;;;;;5.35;2.75;;;;;;;;;;4936958;29;20073;-67
2021/05/24 04:52:54;;;;;;;3.72;2.47;;;;;;;;;;4952687;29;20055;-67
2021/05/24 04:55:21;;;;;;;6.07;2.42;;;;;;;;;;4952269;28;20058;-67
2021/05/24 04:57:48;;;;;;;4.00;2.30;;;;;;;;;;4952561;28;20519;-68
2021/05/24 05:00:15;;;;;;;3.80;2.33;;;;;;;;;;4953463;29;20098;-67
2021/05/24 05:02:42;;;;;;;2.40;2.15;;;;;;;;;;4953669;28;20055;-67
2021/05/24 05:05:09;;;;;;;4.38;2.28;;;;;;;;;;4953270;28;20105;-67
2021/05/24 05:07:36;;;;;;;2.28;1.88;;;;;;;;;;4952321;28;20466;-67
2021/05/24 05:10:03;;;;;;;4.45;2.08;;;;;;;;;;4953427;28;20053;-66
2021/05/24 05:12:30;;;;;;;2.65;1.92;;;;;;;;;;4953391;28;20573;-67
2021/05/24 05:14:58;;;;;;;5.30;2.30;;;;;;;;;;4936451;29;20105;-67
2021/05/24 05:17:25;;;;;;;2.85;2.08;;;;;;;;;;4952347;28;20062;-67
2021/05/24 05:19:52;;;;;;;2.78;2.25;;;;;;;;;;4952096;29;20063;-67
2021/05/24 05:22:19;;;;;;;3.67;1.88;;;;;;;;;;4953209;28;20059;-67
2021/05/24 05:24:46;;;;;;;2.90;2.10;;;;;;;;;;4953316;28;20466;-67
2021/05/24 05:27:12;;;;;;;5.40;2.00;;;;;;;;;;4951771;29;20058;-67
2021/05/24 05:29:41;;;;;;;4.25;2.20;;;;;;;;;;4952238;29;20561;-67
2021/05/24 05:32:08;;;;;;;2.65;1.95;;;;;;;;;;4971660;28;20117;-67
2021/05/24 05:34:35;;;;;;;6.30;2.58;;;;;;;;;;4972311;28;20059;-67
2021/05/24 05:37:02;;;;;;;5.60;2.10;;;;;;;;;;4973217;28;20106;-67
2021/05/24 05:39:28;;;;;;;2.03;1.75;;;;;;;;;;4975202;28;20058;-68
2021/05/24 05:41:55;;;;;;;7.10;4.03;;;;;;;;;;4974757;28;20494;-67
2021/05/24 05:44:21;;;;;;;14.98;3.20;;;;;;;;;;4975870;28;20050;-67
2021/05/24 05:46:48;;;;;;;4.03;2.45;;;;;;;;;;4975639;28;20097;-67
2021/05/24 05:49:15;;;;;;;1.55;1.45;;;;;;;;;;4975857;28;20054;-67
2021/05/24 05:51:41;;;;;;;3.13;2.20;;;;;;;;;;4975895;28;20046;-67
2021/05/24 05:54:08;;;;;;;3.63;2.30;;;;;;;;;;4974520;28;20094;-68
2021/05/24 05:56:34;;;;;;;6.28;1.90;;;;;;;;;;4975613;28;20082;-67
2021/05/24 05:59:01;;;;;;;3.80;1.85;;;;;;;;;;4975952;28;20469;-67
2021/05/24 06:01:28;;;;;;;4.13;3.17;;;;;;;;;;4974304;28;20055;-67
2021/05/24 06:03:54;;;;;;;11.55;9.98;;;;;;;;;;4975680;28;20106;-66
2021/05/24 06:06:21;;;;;;;8.82;7.45;;;;;;;;;;4975200;28;20062;-68
2021/05/24 06:08:47;;;;;;;6.30;5.22;;;;;;;;;;4975496;28;20054;-67
2021/05/24 06:11:14;;;;;;;5.80;3.10;;;;;;;;;;4975475;28;20054;-67
2021/05/24 06:13:41;;;;;;;3.88;2.42;;;;;;;;;;4990541;28;20054;-68
2021/05/24 06:16:08;;;;;;;5.28;2.03;;;;;;;;;;4975249;28;20198;-67
2021/05/24 06:18:38;;;;;;;2.30;1.92;;;;;;;;;;4958990;28;20478;-67
2021/05/24 06:21:05;;;;;;;3.20;1.70;;;;;;;;;;4974025;28;20089;-68
2021/05/24 06:23:31;;;;;;;1.70;1.60;;;;;;;;;;4974010;28;20069;-67
2021/05/24 06:25:58;;;;;;;4.00;2.00;;;;;;;;;;4974904;28;20475;-67
2021/05/24 06:28:24;;;;;;;4.85;1.90;;;;;;;;;;4975037;28;20061;-67
2021/05/24 06:30:51;;;;;;;3.28;1.90;;;;;;;;;;4971046;28;20105;-67
2021/05/24 06:33:18;;;;;;;3.58;2.25;;;;;;;;;;4972861;28;20138;-67
2021/05/24 06:35:44;;;;;;;2.88;1.98;;;;;;;;;;4972776;28;20101;-67
2021/05/24 06:38:11;;;;;;;2.80;1.65;;;;;;;;;;4972701;28;20054;-67
2021/05/24 06:40:37;;;;;;;4.10;2.45;;;;;;;;;;4971889;28;20043;-67
2021/05/24 06:43:04;;;;;;;5.15;2.50;;;;;;;;;;4972521;28;20421;-67
2021/05/24 06:45:30;;;;;;;2.63;1.90;;;;;;;;;;4972510;28;20583;-67
2021/05/24 06:47:57;;;;;;;3.40;1.90;;;;;;;;;;4972039;28;20090;-67
2021/05/24 06:50:24;;;;;;;3.75;1.73;;;;;;;;;;4972793;28;20101;-67
2021/05/24 06:52:51;;;;;;;2.35;1.80;;;;;;;;;;4971523;28;20054;-67
2021/05/24 06:55:17;;;;;;;2.38;1.73;;;;;;;;;;4970940;28;20050;-67
2021/05/24 06:57:44;;;;;;;2.40;1.80;;;;;;;;;;4971544;28;20059;-67
2021/05/24 07:00:11;;;;;;;3.25;1.98;;;;;;;;;;4972513;28;20058;-66
2021/05/24 07:02:42;;;;;;;2.00;1.85;;;;;;;;;;4972672;28;20058;-67
2021/05/24 07:05:09;;;;;;;3.22;1.55;;;;;;;;;;4971232;28;20050;-67
2021/05/24 07:07:36;;;;;;;1.98;1.45;;;;;;;;;;4972441;28;20456;-67
2021/05/24 07:10:04;;;;;;;2.25;1.70;;;;;;;;;;4971830;28;20061;-67
2021/05/24 07:12:31;;;;;;;2.40;1.40;;;;;;;;;;4970865;28;20113;-67
2021/05/24 07:14:58;;;;;;;1.60;1.30;;;;;;;;;;4972300;28;20097;-67
2021/05/24 07:17:24;;;;;;;1.63;1.40;;;;;;;;;;4971984;28;20061;-68
2021/05/24 07:19:51;;;;;;;3.80;1.58;;;;;;;;;;4971125;28;20059;-68
2021/05/24 07:22:18;;;;;;;2.75;1.90;;;;;;;;;;4971486;28;20059;-67
2021/05/24 07:24:45;;;;;;;1.67;1.58;;;;;;;;;;4972179;28;20145;-67
2021/05/24 07:27:11;;;;;;;1.52;1.40;;;;;;;;;;4972138;28;20055;-68
2021/05/24 07:29:38;;;;;;;1.20;1.10;;;;;;;;;;4970940;28;20105;-67
2021/05/24 07:32:09;;;;;;;2.95;1.60;;;;;;;;;;4970812;28;20042;-68
2021/05/24 07:34:39;;;;;;;3.95;1.52;;;;;;;;;;4973692;28;20105;-69
2021/05/24 07:37:06;;;;;;;2.20;1.27;;;;;;;;;;4971625;28;20058;-68
2021/05/24 07:39:33;;;;;;;5.35;1.95;;;;;;;;;;4973858;28;20502;-69
2021/05/24 07:42:01;;;;;;;2.05;1.42;;;;;;;;;;4973824;28;20215;-68
2021/05/24 07:44:29;;;;;;;2.53;1.38;;;;;;;;;;4972681;28;20491;-69
2021/05/24 07:46:56;;;;;;;2.47;1.65;;;;;;;;;;4972922;28;20097;-69
2021/05/24 07:49:23;;;;;;;1.52;1.40;;;;;;;;;;4972473;28;20054;-69
2021/05/24 07:51:50;;;;;;;2.22;1.50;;;;;;;;;;4972539;28;20055;-70
2021/05/24 07:54:17;;;;;;;4.78;2.03;;;;;;;;;;4956454;28;20160;-70
2021/05/24 07:56:44;;;;;;;1.90;1.50;;;;;;;;;;4956396;28;20051;-68
2021/05/24 07:59:11;;;;;;;2.70;1.40;;;;;;;;;;4956302;28;20085;-68
2021/05/24 08:01:38;;;;;;;3.65;1.40;;;;;;;;;;4972240;28;20418;-70
2021/05/24 08:04:05;;;;;;;2.33;1.55;;;;;;;;;;4965080;28;20114;-73
2021/05/24 08:06:32;;;;;;;2.10;1.40;;;;;;;;;;4973126;28;20051;-73
2021/05/24 08:08:58;;;;;;;2.65;1.40;;;;;;;;;;4971651;28;20569;-70
2021/05/24 08:11:25;;;;;;;1.70;1.13;;;;;;;;;;4971645;28;20105;-72
2021/05/24 08:13:53;;;;;;;1.90;1.15;;;;;;;;;;4970753;28;20050;-69
2021/05/24 08:16:21;;;;;;;2.25;1.40;;;;;;;;;;4971989;28;20043;-69
2021/05/24 08:18:47;;;;;;;2.85;1.23;;;;;;;;;;4970900;28;20102;-69
2021/05/24 08:21:15;;;;;;;3.40;1.23;;;;;;;;;;4968566;28;20046;-68
2021/05/24 08:23:42;;;;;;;4.32;1.50;;;;;;;;;;4972083;28;20069;-69
2021/05/24 08:26:09;;;;;;;1.63;1.20;;;;;;;;;;4958603;28;20054;-69
2021/05/24 08:28:36;;;;;;;4.55;1.30;;;;;;;;;;4953246;28;20053;-69
2021/05/24 08:31:03;;;;;;;2.50;1.02;;;;;;;;;;4970797;28;20046;-71
2021/05/24 08:33:30;;;;;;;1.42;0.95;;;;;;;;;;4960785;28;20047;-72
2021/05/24 08:35:58;;;;;;;2.10;1.00;;;;;;;;;;4965762;28;20063;-74
2021/05/24 08:38:24;;;;;;;3.33;1.67;;;;;;;;;;4964467;28;20050;-73
2021/05/24 08:40:51;;;;;;;3.20;2.10;;;;;;;;;;4966577;28;20054;-74
2021/05/24 08:43:20;;;;;;;4.70;2.58;;;;;;;;;;4970643;28;20545;-73
2021/05/24 08:45:47;;;;;;;1.35;1.08;;;;;;;;;;4970334;28;20053;-72
2021/05/24 08:48:14;;;;;;;1.63;1.00;;;;;;;;;;4980255;28;20166;-73
2021/05/24 08:50:42;;;;;;;1.40;0.90;;;;;;;;;;4954809;28;20054;-72
2021/05/24 08:53:10;;;;;;;1.08;0.90;;;;;;;;;;4968650;28;20480;-73
2021/05/24 08:55:40;;;;;;;3.13;0.90;;;;;;;;;;4961648;28;20073;-73
2021/05/24 08:58:09;;;;;;;2.63;0.80;;;;;;;;;;4970820;28;20101;-74
2021/05/24 09:00:36;;;;;;;1.45;0.90;;;;;;;;;;4975298;28;20146;-73
2021/05/24 09:03:04;;;;;;;1.15;0.75;;;;;;;;;;4954593;28;20078;-72
2021/05/24 09:05:32;;;;;;;3.28;0.70;;;;;;;;;;4953904;28;20146;-72
2021/05/24 09:08:00;;;;;;;1.38;0.80;;;;;;;;;;4970729;28;20113;-76
2021/05/24 09:10:30;;;;;;;1.10;0.70;;;;;;;;;;4913958;28;20134;-74
2021/05/24 09:12:58;;;;;;;1.70;0.93;;;;;;;;;;4958104;28;20281;-71
2021/05/24 09:15:26;;;;;;;1.92;0.90;;;;;;;;;;4972166;28;20062;-76
2021/05/24 09:17:54;;;;;;;4.15;1.00;;;;;;;;;;4965840;28;20093;-71
2021/05/24 09:20:23;;;;;;;1.58;0.70;;;;;;;;;;4972645;28;20051;-70
2021/05/24 09:23:05;;;;;;;1.42;0.90;;;;;;;;;;4975341;28;20042;-70
2021/05/24 09:25:50;;;;;;;1.58;0.70;;;;;;;;;;4972865;28;20054;-76
2021/05/24 09:28:38;;;;;;;2.05;0.73;;;;;;;;;;4971504;28;20051;-75
2021/05/24 09:31:20;;;;;;;1.13;0.90;;;;;;;;;;4959014;28;20406;-75
2021/05/24 09:33:49;;;;;;;2.43;0.93;;;;;;;;;;4974076;28;20129;-74
2021/05/24 09:36:16;;;;;;;1.98;0.98;;;;;;;;;;5018127;22;20767;-72
2021/05/24 09:38:47;;;;;;;1.30;0.80;;;;;;;;;;5034973;28;20068;-72
2021/05/24 09:41:17;;;;;;;0.73;0.65;;;;;;;;;;5034364;28;20089;-76
2021/05/24 09:43:45;;;;;;;1.58;1.10;;;;;;;;;;5033093;28;20060;-74
2021/05/24 09:46:23;;;;;;;1.83;0.90;;;;;;;;;;5032536;28;20566;-73
2021/05/24 09:49:00;;;;;;;1.92;0.88;;;;;;;;;;5033056;28;20068;-75
2021/05/24 09:51:29;;;;;;;1.40;1.00;;;;;;;;;;5044371;28;20050;-74
2021/05/24 09:54:02;;;;;;;1.50;0.80;;;;;;;;;;5033285;28;20481;-76
2021/05/24 09:56:31;;;;;;;2.03;1.15;;;;;;;;;;5031927;28;20544;-75
2021/05/24 09:59:15;;;;;;;2.28;0.80;;;;;;;;;;5030290;28;20127;-71
2021/05/24 10:01:49;;;;;;;1.60;0.98;;;;;;;;;;5031059;28;20045;-72
2021/05/24 10:04:21;;;;;;;1.83;0.93;;;;;;;;;;5031239;28;20099;-73
2021/05/24 10:06:48;;;;;;;1.20;0.77;;;;;;;;;;5048033;28;20100;-73
2021/05/24 10:09:17;;;;;;;1.27;1.00;;;;;;;;;;5032668;28;20045;-72
2021/05/24 10:11:46;;;;;;;1.63;0.70;;;;;;;;;;5032931;28;20095;-75
2021/05/24 10:14:14;;;;;;;1.65;0.88;;;;;;;;;;5031244;28;20496;-70
2021/05/24 10:16:45;;;;;;;1.42;0.80;;;;;;;;;;5032503;28;20088;-71
2021/05/24 10:19:15;;;;;;;1.58;0.70;;;;;;;;;;5032682;28;20085;-70
2021/05/24 10:21:42;;;;;;;1.80;0.98;;;;;;;;;;5030816;28;20045;-70
2021/05/24 10:24:09;;;;;;;2.95;2.03;;;;;;;;;;5032492;28;20269;-70
2021/05/24 10:26:37;;;;;;;2.80;2.20;;;;;;;;;;5032099;28;20045;-69
2021/05/24 10:29:08;;;;;;;2.78;1.20;;;;;;;;;;5046366;28;20045;-70
2021/05/24 10:31:35;;;;;;;4.85;1.00;;;;;;;;;;5029785;28;20543;-69
2021/05/24 10:34:08;;;;;;;1.63;0.93;;;;;;;;;;5029960;28;20424;-69
2021/05/24 10:36:35;;;;;;;2.50;0.95;;;;;;;;;;5035877;28;20115;-70
2021/05/24 10:39:09;;;;;;;1.67;0.70;;;;;;;;;;5035631;28;20060;-69
2021/05/24 10:41:44;;;;;;;4.30;0.90;;;;;;;;;;5028126;28;20132;-69
2021/05/24 10:44:12;;;;;;;2.63;0.82;;;;;;;;;;5028138;28;20042;-69
2021/05/24 10:46:40;;;;;;;1.25;0.80;;;;;;;;;;5032042;28;20045;-69
2021/05/24 10:49:13;;;;;;;1.92;0.70;;;;;;;;;;5029183;28;20111;-69
2021/05/24 10:51:51;;;;;;;3.42;0.90;;;;;;;;;;5030158;28;20077;-69
2021/05/24 10:54:21;;;;;;;1.02;0.88;;;;;;;;;;5029849;28;20085;-69
2021/05/24 10:57:05;;;;;;;2.55;1.00;;;;;;;;;;5030023;28;20053;-69
2021/05/24 10:59:41;;;;;;;1.48;0.90;;;;;;;;;;5030220;28;20049;-70
2021/05/24 11:02:12;;;;;;;0.80;0.80;;;;;;;;;;5029708;28;20492;-69
2021/05/24 11:05:16;;;;;;;1.38;0.88;;;;;;;;;;5029452;28;20081;-70
2021/05/24 11:07:44;;;;;;;2.47;1.02;;;;;;;;;;5031158;28;20072;-68
2021/05/24 11:10:17;;;;;;;1.63;0.98;;;;;;;;;;5031634;28;20103;-68
2021/05/24 11:13:07;;;;;;;2.20;0.93;;;;;;;;;;5028651;28;20045;-68
2021/05/24 11:15:34;;;;;;;1.00;0.90;;;;;;;;;;5022422;28;20049;-68
2021/05/24 11:18:02;;;;;;;1.60;1.05;;;;;;;;;;5031602;28;20053;-68
2021/05/24 11:20:50;;;;;;;1.55;0.70;;;;;;;;;;5031740;28;20560;-68
2021/05/24 11:26:12;;;;;;;1.85;0.77;;;;;;;;;;5029443;28;20515;-68
2021/05/24 11:28:39;;;;;;;0.80;0.60;;;;;;;;;;5031283;28;20096;-69
2021/05/24 11:31:23;;;;;;;1.52;0.77;;;;;;;;;;5031752;28;20495;-68
2021/05/24 11:33:54;;;;;;;1.40;1.02;;;;;;;;;;5026823;28;20050;-68
2021/05/24 11:36:23;;;;;;;4.40;1.25;;;;;;;;;;5019775;28;20072;-75
2021/05/24 11:39:09;;;;;;;1.30;1.00;;;;;;;;;;5004474;28;20053;-74
2021/05/24 11:41:59;;;;;;;1.13;0.90;;;;;;;;;;5020316;28;20633;-75
2021/05/24 11:44:37;;;;;;;2.00;0.70;;;;;;;;;;5028192;28;20057;-75
2021/05/24 11:47:14;;;;;;;2.20;0.70;;;;;;;;;;5014504;28;20053;-74
2021/05/24 11:49:57;;;;;;;1.02;0.80;;;;;;;;;;5029811;28;20052;-73
2021/05/24 11:52:30;;;;;;;1.70;0.57;;;;;;;;;;5029805;28;20116;-76
2021/05/24 11:54:57;;;;;;;1.00;0.65;;;;;;;;;;5045570;28;20049;-74
2021/05/24 11:57:26;;;;;;;1.52;0.70;;;;;;;;;;5030142;28;20500;-74
2021/05/24 11:59:53;;;;;;;0.47;0.43;;;;;;;;;;5031159;28;20056;-76
2021/05/24 12:02:22;;;;;;;1.45;0.63;;;;;;;;;;5030539;28;20045;-74
2021/05/24 12:04:49;;;;;;;0.82;0.55;;;;;;;;;;5045709;28;20041;-74
2021/05/24 12:07:21;;;;;;;0.85;0.50;;;;;;;;;;5030197;28;20053;-73
2021/05/24 12:09:58;;;;;;;0.85;0.50;;;;;;;;;;5030804;28;20057;-70
2021/05/24 12:12:37;;;;;;;3.75;0.70;;;;;;;;;;5028580;28;20064;-71
2021/05/24 12:15:06;;;;;;;1.48;0.80;;;;;;;;;;5030413;28;20057;-73
2021/05/24 12:17:34;;;;;;;0.63;0.60;;;;;;;;;;5030577;28;20076;-76
2021/05/24 12:20:07;;;;;;;1.05;0.55;;;;;;;;;;5045092;28;20050;-72
2021/05/24 12:22:41;;;;;;;2.70;0.90;;;;;;;;;;5030959;28;20045;-73
2021/05/24 12:25:09;;;;;;;1.85;0.70;;;;;;;;;;5030098;28;20045;-72
2021/05/24 12:27:36;;;;;;;1.90;1.05;;;;;;;;;;5030842;28;20045;-72
2021/05/24 12:30:17;;;;;;;2.28;0.88;;;;;;;;;;5031006;28;20053;-72
2021/05/24 12:32:52;;;;;;;5.15;1.35;;;;;;;;;;5031220;28;20076;-72
2021/05/24 12:35:21;;;;;;;0.90;0.60;;;;;;;;;;5030526;28;20053;-73
2021/05/24 12:37:51;;;;;;;2.15;0.80;;;;;;;;;;5027178;28;20115;-73
2021/05/24 12:40:18;;;;;;;1.83;0.77;;;;;;;;;;5028609;28;20049;-72
2021/05/24 12:42:44;;;;;;;1.27;0.77;;;;;;;;;;5015436;28;20523;-72
2021/05/24 12:45:12;;;;;;;0.93;0.82;;;;;;;;;;5045027;28;20535;-73
2021/05/24 12:47:39;;;;;;;2.17;0.45;;;;;;;;;;5029911;28;20493;-73
2021/05/24 12:50:19;;;;;;;0.73;0.70;;;;;;;;;;5030192;28;20144;-72
2021/05/24 12:52:46;;;;;;;0.77;0.50;;;;;;;;;;5046033;28;20073;-72
2021/05/24 12:55:14;;;;;;;0.70;0.52;;;;;;;;;;5023423;28;20058;-72
2021/05/24 12:57:47;;;;;;;0.70;0.57;;;;;;;;;;5028433;28;20059;-73
2021/05/24 13:00:15;;;;;;;1.95;0.65;;;;;;;;;;5028914;28;20046;-72
2021/05/24 13:02:42;;;;;;;1.35;0.77;;;;;;;;;;5031094;28;20041;-72
2021/05/24 13:05:09;;;;;;;1.02;0.82;;;;;;;;;;5012247;28;20053;-73
2021/05/24 13:07:53;;;;;;;1.27;0.80;;;;;;;;;;5030931;28;20045;-71
2021/05/24 13:10:26;;;;;;;3.42;1.02;;;;;;;;;;5024139;28;20053;-73
2021/05/24 13:12:59;;;;;;;2.72;0.63;;;;;;;;;;5028732;28;20045;-69
2021/05/24 13:15:34;;;;;;;2.22;0.63;;;;;;;;;;5043673;28;20769;-75
2021/05/24 13:18:13;;;;;;;1.05;0.60;;;;;;;;;;5028591;28;20523;-72
2021/05/24 13:26:53;;;;;;;1.02;0.50;;;;;;;;;;5029509;28;20081;-72
2021/05/24 13:32:05;;;;;;;2.72;0.70;;;;;;;;;;5029539;28;20458;-72
2021/05/24 13:34:36;;;;;;;2.28;1.00;;;;;;;;;;5029779;28;20076;-72
2021/05/24 13:37:08;;;;;;;0.95;0.68;;;;;;;;;;5029359;28;20049;-71
2021/05/24 13:39:35;;;;;;;1.15;0.70;;;;;;;;;;5030099;28;20049;-72
2021/05/24 13:42:03;;;;;;;1.42;0.80;;;;;;;;;;5029306;28;20103;-72
2021/05/24 13:44:30;;;;;;;1.92;0.70;;;;;;;;;;5028595;28;20080;-73
2021/05/24 13:46:58;;;;;;;0.98;0.70;;;;;;;;;;5029824;28;20504;-74
2021/05/24 13:49:24;;;;;;;2.10;0.80;;;;;;;;;;5030231;28;20053;-75
2021/05/24 13:51:53;;;;;;;1.02;0.77;;;;;;;;;;5029200;28;20050;-71
2021/05/24 13:54:19;;;;;;;1.95;1.00;;;;;;;;;;5028844;28;20463;-73
2021/05/24 13:56:47;;;;;;;1.15;0.70;;;;;;;;;;5029447;28;20073;-74
2021/05/24 13:59:14;;;;;;;1.88;0.80;;;;;;;;;;5031865;28;20079;-73
2021/05/24 14:01:41;;;;;;;0.82;0.77;;;;;;;;;;5031597;28;20045;-73
2021/05/24 14:04:08;;;;;;;1.00;0.88;;;;;;;;;;5032837;28;20412;-73
2021/05/24 14:06:35;;;;;;;1.13;1.00;;;;;;;;;;5033040;28;20072;-75
2021/05/24 14:09:03;;;;;;;2.20;1.05;;;;;;;;;;5046047;28;20057;-73
2021/05/24 14:11:29;;;;;;;1.77;1.00;;;;;;;;;;5030575;28;20100;-73
2021/05/24 14:13:56;;;;;;;3.45;1.05;;;;;;;;;;5017145;28;20287;-73
2021/05/24 14:16:22;;;;;;;0.98;0.73;;;;;;;;;;5032429;28;20061;-74
2021/05/24 14:18:50;;;;;;;0.98;0.88;;;;;;;;;;5031857;28;20091;-73
2021/05/24 14:21:19;;;;;;;2.15;0.95;;;;;;;;;;5028880;28;20088;-73
2021/05/24 14:23:47;;;;;;;2.25;1.08;;;;;;;;;;5031668;28;20409;-74
2021/05/24 14:26:14;;;;;;;2.00;0.93;;;;;;;;;;5031920;28;20562;-73
2021/05/24 14:28:41;;;;;;;2.63;0.80;;;;;;;;;;5031433;28;20523;-74
2021/05/24 14:31:09;;;;;;;1.45;1.10;;;;;;;;;;5014712;28;20049;-73
2021/05/24 14:33:38;;;;;;;2.42;1.05;;;;;;;;;;5030878;28;20492;-72
2021/05/24 14:36:05;;;;;;;1.77;1.02;;;;;;;;;;5031776;28;20124;-71
2021/05/24 14:38:32;;;;;;;2.28;1.08;;;;;;;;;;5031813;28;20697;-71
2021/05/24 14:40:59;;;;;;;1.10;0.93;;;;;;;;;;5032267;28;20061;-71
2021/05/24 14:43:26;;;;;;;1.08;0.70;;;;;;;;;;5047224;28;20053;-72
2021/05/24 14:45:58;;;;;;;0.93;0.70;;;;;;;;;;5031940;28;20415;-72
2021/05/24 14:48:26;;;;;;;1.77;0.85;;;;;;;;;;5028841;28;20133;-72
2021/05/24 14:50:55;;;;;;;1.67;0.90;;;;;;;;;;5046681;28;20508;-72
2021/05/24 14:53:25;;;;;;;0.60;0.60;;;;;;;;;;5044553;28;20056;-73
2021/05/24 14:55:52;;;;;;;2.13;0.85;;;;;;;;;;5029993;28;20087;-72
2021/05/24 14:58:19;;;;;;;1.83;0.88;;;;;;;;;;5013664;28;20516;-73
2021/05/24 15:00:45;;;;;;;1.92;0.85;;;;;;;;;;5028861;28;20057;-73
2021/05/24 15:03:12;;;;;;;1.38;0.90;;;;;;;;;;5029289;28;20072;-71